sensor_id;sensor_type;location;lat;lon;timestamp;temperature;humidity
5808;DHT22;2930;42.678;23.312;2023-02-28T00:00:49;7.30;98.50
5808;DHT22;2930;42.678;23.312;2023-02-28T00:03:15;7.30;98.50
5808;DHT22;2930;42.678;23.312;2023-02-28T00:05:41;7.40;98.50
5808;DHT22;2930;42.678;23.312;2023-02-28T00:08:07;7.40;98.50
5808;DHT22;2930;42.678;23.312;2023-02-28T00:10:33;7.40;98.50
5808;DHT22;2930;42.678;23.312;2023-02-28T00:13:05;7.40;98.40
5808;DHT22;2930;42.678;23.312;2023-02-28T00:15:31;7.30;98.50
5808;DHT22;2930;42.678;23.312;2023-02-28T00:17:57;7.30;98.50
5808;DHT22;2930;42.678;23.312;2023-02-28T00:20:23;7.20;98.50
5808;DHT22;2930;42.678;23.312;2023-02-28T00:22:51;7.30;98.50
5808;DHT22;2930;42.678;23.312;2023-02-28T00:25:22;7.20;98.50
5808;DHT22;2930;42.678;23.312;2023-02-28T00:27:49;7.30;98.50
5808;DHT22;2930;42.678;23.312;2023-02-28T00:30:17;7.30;98.50
5808;DHT22;2930;42.678;23.312;2023-02-28T00:32:43;7.40;98.50
5808;DHT22;2930;42.678;23.312;2023-02-28T00:35:10;7.40;98.50
5808;DHT22;2930;42.678;23.312;2023-02-28T00:37:36;7.40;98.50
5808;DHT22;2930;42.678;23.312;2023-02-28T00:40:02;7.50;98.50
5808;DHT22;2930;42.678;23.312;2023-02-28T00:42:30;7.50;98.50
5808;DHT22;2930;42.678;23.312;2023-02-28T00:44:56;7.50;98.50
5808;DHT22;2930;42.678;23.312;2023-02-28T00:47:22;7.60;98.50
5808;DHT22;2930;42.678;23.312;2023-02-28T00:49:47;7.60;98.50
5808;DHT22;2930;42.678;23.312;2023-02-28T00:52:13;7.60;98.50
5808;DHT22;2930;42.678;23.312;2023-02-28T00:54:39;7.50;98.50
5808;DHT22;2930;42.678;23.312;2023-02-28T00:57:04;7.50;98.50
5808;DHT22;2930;42.678;23.312;2023-02-28T00:59:30;7.50;98.50
5808;DHT22;2930;42.678;23.312;2023-02-28T01:01:56;7.50;98.50
5808;DHT22;2930;42.678;23.312;2023-02-28T01:04:22;7.40;98.50
5808;DHT22;2930;42.678;23.312;2023-02-28T01:06:47;7.40;98.50
5808;DHT22;2930;42.678;23.312;2023-02-28T01:09:13;7.30;98.50
5808;DHT22;2930;42.678;23.312;2023-02-28T01:11:38;7.20;98.50
5808;DHT22;2930;42.678;23.312;2023-02-28T01:14:06;7.20;98.50
5808;DHT22;2930;42.678;23.312;2023-02-28T01:16:31;7.20;98.50
5808;DHT22;2930;42.678;23.312;2023-02-28T01:18:57;7.20;98.50
5808;DHT22;2930;42.678;23.312;2023-02-28T01:21:23;7.10;98.50
5808;DHT22;2930;42.678;23.312;2023-02-28T01:23:50;7.10;98.50
5808;DHT22;2930;42.678;23.312;2023-02-28T01:26:21;7.10;98.50
5808;DHT22;2930;42.678;23.312;2023-02-28T01:28:48;7.10;98.50
5808;DHT22;2930;42.678;23.312;2023-02-28T01:31:15;7.10;98.50
5808;DHT22;2930;42.678;23.312;2023-02-28T01:33:41;7.10;98.50
5808;DHT22;2930;42.678;23.312;2023-02-28T01:36:09;7.10;98.50
5808;DHT22;2930;42.678;23.312;2023-02-28T01:38:35;7.20;98.50
5808;DHT22;2930;42.678;23.312;2023-02-28T01:41:01;7.20;98.50
5808;DHT22;2930;42.678;23.312;2023-02-28T01:43:29;7.20;98.50
5808;DHT22;2930;42.678;23.312;2023-02-28T01:45:56;7.20;98.50
5808;DHT22;2930;42.678;23.312;2023-02-28T01:48:28;7.20;98.50
5808;DHT22;2930;42.678;23.312;2023-02-28T01:50:59;7.20;98.50
5808;DHT22;2930;42.678;23.312;2023-02-28T01:53:32;7.20;98.50
5808;DHT22;2930;42.678;23.312;2023-02-28T01:55:59;7.30;98.50
5808;DHT22;2930;42.678;23.312;2023-02-28T01:58:25;7.20;98.50
5808;DHT22;2930;42.678;23.312;2023-02-28T02:00:51;7.20;98.50
5808;DHT22;2930;42.678;23.312;2023-02-28T02:03:18;7.20;98.50
5808;DHT22;2930;42.678;23.312;2023-02-28T02:05:45;7.20;98.50
5808;DHT22;2930;42.678;23.312;2023-02-28T02:08:17;7.20;98.50
5808;DHT22;2930;42.678;23.312;2023-02-28T02:10:46;7.20;98.50
5808;DHT22;2930;42.678;23.312;2023-02-28T02:22:09;7.10;98.50
5808;DHT22;2930;42.678;23.312;2023-02-28T02:25:00;6.90;98.50
5808;DHT22;2930;42.678;23.312;2023-02-28T02:36:27;7.00;98.50
5808;DHT22;2930;42.678;23.312;2023-02-28T02:44:17;6.90;98.50
5808;DHT22;2930;42.678;23.312;2023-02-28T02:46:45;6.90;98.50
5808;DHT22;2930;42.678;23.312;2023-02-28T02:49:28;6.90;98.50
5808;DHT22;2930;42.678;23.312;2023-02-28T02:51:57;6.90;98.50
5808;DHT22;2930;42.678;23.312;2023-02-28T02:54:28;6.90;98.50
5808;DHT22;2930;42.678;23.312;2023-02-28T02:56:57;6.90;98.50
5808;DHT22;2930;42.678;23.312;2023-02-28T02:59:26;6.90;98.50
5808;DHT22;2930;42.678;23.312;2023-02-28T03:01:56;6.90;98.50
5808;DHT22;2930;42.678;23.312;2023-02-28T03:04:25;6.90;98.50
5808;DHT22;2930;42.678;23.312;2023-02-28T03:06:53;7.00;98.50
5808;DHT22;2930;42.678;23.312;2023-02-28T03:09:24;7.00;98.50
5808;DHT22;2930;42.678;23.312;2023-02-28T03:11:52;7.00;98.50
5808;DHT22;2930;42.678;23.312;2023-02-28T03:17:05;7.10;98.50
5808;DHT22;2930;42.678;23.312;2023-02-28T03:25:20;6.90;98.50
5808;DHT22;2930;42.678;23.312;2023-02-28T03:33:12;6.90;98.50
5808;DHT22;2930;42.678;23.312;2023-02-28T03:35:43;6.90;98.50
5808;DHT22;2930;42.678;23.312;2023-02-28T03:38:22;6.90;98.50
5808;DHT22;2930;42.678;23.312;2023-02-28T03:43:51;6.90;98.50
5808;DHT22;2930;42.678;23.312;2023-02-28T03:46:22;6.90;98.50
5808;DHT22;2930;42.678;23.312;2023-02-28T03:49:07;7.00;98.50
5808;DHT22;2930;42.678;23.312;2023-02-28T03:51:36;7.00;98.50
5808;DHT22;2930;42.678;23.312;2023-02-28T03:54:12;7.00;98.50
5808;DHT22;2930;42.678;23.312;2023-02-28T03:59:40;7.00;98.50
5808;DHT22;2930;42.678;23.312;2023-02-28T04:02:08;7.10;98.50
5808;DHT22;2930;42.678;23.312;2023-02-28T04:04:34;7.10;98.50
5808;DHT22;2930;42.678;23.312;2023-02-28T04:07:07;7.10;98.50
5808;DHT22;2930;42.678;23.312;2023-02-28T04:09:34;7.10;98.50
5808;DHT22;2930;42.678;23.312;2023-02-28T04:12:00;7.10;98.50
5808;DHT22;2930;42.678;23.312;2023-02-28T04:14:26;7.10;98.50
5808;DHT22;2930;42.678;23.312;2023-02-28T04:16:52;7.10;98.50
5808;DHT22;2930;42.678;23.312;2023-02-28T04:19:18;7.20;98.50
5808;DHT22;2930;42.678;23.312;2023-02-28T04:21:49;7.10;98.50
5808;DHT22;2930;42.678;23.312;2023-02-28T04:24:17;7.10;98.50
5808;DHT22;2930;42.678;23.312;2023-02-28T04:26:45;7.10;98.50
5808;DHT22;2930;42.678;23.312;2023-02-28T04:29:17;7.10;98.50
5808;DHT22;2930;42.678;23.312;2023-02-28T04:31:43;7.10;98.50
5808;DHT22;2930;42.678;23.312;2023-02-28T04:34:09;7.10;98.50
5808;DHT22;2930;42.678;23.312;2023-02-28T04:36:34;7.10;98.50
5808;DHT22;2930;42.678;23.312;2023-02-28T04:39:00;7.10;98.50
5808;DHT22;2930;42.678;23.312;2023-02-28T04:41:26;7.10;98.50
5808;DHT22;2930;42.678;23.312;2023-02-28T04:43:52;7.10;98.50
5808;DHT22;2930;42.678;23.312;2023-02-28T04:46:19;7.10;98.50
5808;DHT22;2930;42.678;23.312;2023-02-28T04:48:45;7.00;98.50
5808;DHT22;2930;42.678;23.312;2023-02-28T04:51:12;7.10;98.50
5808;DHT22;2930;42.678;23.312;2023-02-28T04:53:40;7.00;98.50
5808;DHT22;2930;42.678;23.312;2023-02-28T04:56:06;7.00;98.50
5808;DHT22;2930;42.678;23.312;2023-02-28T04:58:33;7.10;98.50
5808;DHT22;2930;42.678;23.312;2023-02-28T05:01:06;7.00;98.50
5808;DHT22;2930;42.678;23.312;2023-02-28T05:03:38;7.10;98.50
5808;DHT22;2930;42.678;23.312;2023-02-28T05:06:06;7.00;98.50
5808;DHT22;2930;42.678;23.312;2023-02-28T05:08:32;6.90;98.50
5808;DHT22;2930;42.678;23.312;2023-02-28T05:10:58;6.90;98.50
5808;DHT22;2930;42.678;23.312;2023-02-28T05:13:26;6.90;98.50
5808;DHT22;2930;42.678;23.312;2023-02-28T05:15:53;6.90;98.50
5808;DHT22;2930;42.678;23.312;2023-02-28T05:18:18;6.90;98.50
5808;DHT22;2930;42.678;23.312;2023-02-28T05:20:44;6.90;98.50
5808;DHT22;2930;42.678;23.312;2023-02-28T05:23:14;6.80;98.50
5808;DHT22;2930;42.678;23.312;2023-02-28T05:25:41;6.80;98.50
5808;DHT22;2930;42.678;23.312;2023-02-28T05:28:07;6.90;98.50
5808;DHT22;2930;42.678;23.312;2023-02-28T05:30:33;6.90;98.50
5808;DHT22;2930;42.678;23.312;2023-02-28T05:32:59;6.90;98.50
5808;DHT22;2930;42.678;23.312;2023-02-28T05:35:26;6.90;98.50
5808;DHT22;2930;42.678;23.312;2023-02-28T05:37:52;6.90;98.50
5808;DHT22;2930;42.678;23.312;2023-02-28T05:40:18;7.00;98.50
5808;DHT22;2930;42.678;23.312;2023-02-28T05:42:46;7.00;98.50
5808;DHT22;2930;42.678;23.312;2023-02-28T05:45:12;7.00;98.50
5808;DHT22;2930;42.678;23.312;2023-02-28T05:47:38;7.10;98.50
5808;DHT22;2930;42.678;23.312;2023-02-28T05:50:05;7.10;98.50
5808;DHT22;2930;42.678;23.312;2023-02-28T05:52:30;7.10;98.50
5808;DHT22;2930;42.678;23.312;2023-02-28T05:54:56;7.10;98.50
5808;DHT22;2930;42.678;23.312;2023-02-28T05:57:22;7.10;98.50
5808;DHT22;2930;42.678;23.312;2023-02-28T05:59:48;7.10;98.50
5808;DHT22;2930;42.678;23.312;2023-02-28T06:02:15;7.10;98.50
5808;DHT22;2930;42.678;23.312;2023-02-28T06:04:42;7.10;98.50
5808;DHT22;2930;42.678;23.312;2023-02-28T06:07:08;7.10;98.50
5808;DHT22;2930;42.678;23.312;2023-02-28T06:09:34;7.20;98.50
5808;DHT22;2930;42.678;23.312;2023-02-28T06:12:01;7.20;98.50
5808;DHT22;2930;42.678;23.312;2023-02-28T06:14:29;7.30;98.50
5808;DHT22;2930;42.678;23.312;2023-02-28T06:16:57;7.30;98.50
5808;DHT22;2930;42.678;23.312;2023-02-28T06:19:22;7.40;98.50
5808;DHT22;2930;42.678;23.312;2023-02-28T06:21:51;7.40;98.50
5808;DHT22;2930;42.678;23.312;2023-02-28T06:24:18;7.40;98.50
5808;DHT22;2930;42.678;23.312;2023-02-28T06:26:44;7.50;98.50
5808;DHT22;2930;42.678;23.312;2023-02-28T06:29:10;7.60;98.50
5808;DHT22;2930;42.678;23.312;2023-02-28T06:31:35;7.60;98.50
5808;DHT22;2930;42.678;23.312;2023-02-28T06:34:01;7.70;98.50
5808;DHT22;2930;42.678;23.312;2023-02-28T06:36:27;7.70;98.50
5808;DHT22;2930;42.678;23.312;2023-02-28T06:38:53;7.80;98.50
5808;DHT22;2930;42.678;23.312;2023-02-28T06:41:25;7.80;98.50
5808;DHT22;2930;42.678;23.312;2023-02-28T06:43:51;7.90;98.50
5808;DHT22;2930;42.678;23.312;2023-02-28T06:46:17;7.90;98.50
5808;DHT22;2930;42.678;23.312;2023-02-28T06:48:43;7.90;98.50
5808;DHT22;2930;42.678;23.312;2023-02-28T06:51:15;8.00;98.00
5808;DHT22;2930;42.678;23.312;2023-02-28T06:53:42;8.00;97.90
5808;DHT22;2930;42.678;23.312;2023-02-28T06:56:11;8.00;98.40
5808;DHT22;2930;42.678;23.312;2023-02-28T06:58:37;8.00;98.30
5808;DHT22;2930;42.678;23.312;2023-02-28T07:01:05;8.00;97.90
5808;DHT22;2930;42.678;23.312;2023-02-28T07:03:31;8.00;97.80
5808;DHT22;2930;42.678;23.312;2023-02-28T07:05:57;8.10;97.70
5808;DHT22;2930;42.678;23.312;2023-02-28T07:08:23;8.10;98.00
5808;DHT22;2930;42.678;23.312;2023-02-28T07:10:56;8.00;97.80
5808;DHT22;2930;42.678;23.312;2023-02-28T07:13:22;8.00;97.80
5808;DHT22;2930;42.678;23.312;2023-02-28T07:16:04;8.10;97.70
5808;DHT22;2930;42.678;23.312;2023-02-28T07:18:31;8.00;97.40
5808;DHT22;2930;42.678;23.312;2023-02-28T07:20:57;8.10;97.50
5808;DHT22;2930;42.678;23.312;2023-02-28T07:23:23;8.10;97.50
5808;DHT22;2930;42.678;23.312;2023-02-28T07:25:50;8.10;97.30
5808;DHT22;2930;42.678;23.312;2023-02-28T07:28:15;8.10;97.70
5808;DHT22;2930;42.678;23.312;2023-02-28T07:30:41;8.10;97.50
5808;DHT22;2930;42.678;23.312;2023-02-28T07:33:08;8.10;97.40
5808;DHT22;2930;42.678;23.312;2023-02-28T07:35:34;8.10;97.10
5808;DHT22;2930;42.678;23.312;2023-02-28T07:38:00;8.20;97.70
5808;DHT22;2930;42.678;23.312;2023-02-28T07:40:26;8.20;97.60
5808;DHT22;2930;42.678;23.312;2023-02-28T07:42:51;8.30;97.20
5808;DHT22;2930;42.678;23.312;2023-02-28T07:45:17;8.30;97.30
5808;DHT22;2930;42.678;23.312;2023-02-28T07:47:44;8.40;97.20
5808;DHT22;2930;42.678;23.312;2023-02-28T07:50:12;8.40;96.80
5808;DHT22;2930;42.678;23.312;2023-02-28T07:52:38;8.40;96.60
5808;DHT22;2930;42.678;23.312;2023-02-28T07:55:05;8.50;96.10
5808;DHT22;2930;42.678;23.312;2023-02-28T07:57:32;8.40;96.30
5808;DHT22;2930;42.678;23.312;2023-02-28T07:59:57;8.50;96.30
5808;DHT22;2930;42.678;23.312;2023-02-28T08:02:23;8.50;96.60
5808;DHT22;2930;42.678;23.312;2023-02-28T08:04:49;8.50;96.90
5808;DHT22;2930;42.678;23.312;2023-02-28T08:07:16;8.60;97.20
5808;DHT22;2930;42.678;23.312;2023-02-28T08:09:43;8.70;96.80
5808;DHT22;2930;42.678;23.312;2023-02-28T08:12:09;8.80;96.80
5808;DHT22;2930;42.678;23.312;2023-02-28T08:14:35;8.90;96.50
5808;DHT22;2930;42.678;23.312;2023-02-28T08:17:01;8.90;96.40
5808;DHT22;2930;42.678;23.312;2023-02-28T08:19:27;9.10;96.40
5808;DHT22;2930;42.678;23.312;2023-02-28T08:21:54;9.20;95.80
5808;DHT22;2930;42.678;23.312;2023-02-28T08:24:20;9.30;95.60
5808;DHT22;2930;42.678;23.312;2023-02-28T08:26:45;9.40;95.40
5808;DHT22;2930;42.678;23.312;2023-02-28T08:29:11;9.50;95.40
5808;DHT22;2930;42.678;23.312;2023-02-28T08:31:37;9.60;95.00
5808;DHT22;2930;42.678;23.312;2023-02-28T08:34:11;9.70;94.60
5808;DHT22;2930;42.678;23.312;2023-02-28T08:36:38;9.80;94.40
5808;DHT22;2930;42.678;23.312;2023-02-28T08:39:04;9.80;94.20
5808;DHT22;2930;42.678;23.312;2023-02-28T08:41:30;9.90;94.20
5808;DHT22;2930;42.678;23.312;2023-02-28T08:43:56;9.90;94.20
5808;DHT22;2930;42.678;23.312;2023-02-28T08:46:23;10.00;94.00
5808;DHT22;2930;42.678;23.312;2023-02-28T08:48:53;10.00;94.00
5808;DHT22;2930;42.678;23.312;2023-02-28T08:51:19;10.00;93.80
5808;DHT22;2930;42.678;23.312;2023-02-28T08:53:52;10.10;93.90
5808;DHT22;2930;42.678;23.312;2023-02-28T08:56:19;10.10;93.70
5808;DHT22;2930;42.678;23.312;2023-02-28T08:58:45;10.20;93.40
5808;DHT22;2930;42.678;23.312;2023-02-28T09:01:16;10.10;93.40
5808;DHT22;2930;42.678;23.312;2023-02-28T09:03:43;10.10;93.80
5808;DHT22;2930;42.678;23.312;2023-02-28T09:06:09;10.10;93.90
5808;DHT22;2930;42.678;23.312;2023-02-28T09:08:36;10.10;94.20
5808;DHT22;2930;42.678;23.312;2023-02-28T09:11:02;10.20;94.10
5808;DHT22;2930;42.678;23.312;2023-02-28T09:13:28;10.10;93.90
5808;DHT22;2930;42.678;23.312;2023-02-28T09:15:57;10.20;92.10
5808;DHT22;2930;42.678;23.312;2023-02-28T09:18:23;10.10;91.80
5808;DHT22;2930;42.678;23.312;2023-02-28T09:20:49;10.00;92.20
5808;DHT22;2930;42.678;23.312;2023-02-28T09:23:15;10.00;92.50
5808;DHT22;2930;42.678;23.312;2023-02-28T09:25:47;9.70;92.80
5808;DHT22;2930;42.678;23.312;2023-02-28T09:28:14;9.70;93.10
5808;DHT22;2930;42.678;23.312;2023-02-28T09:30:41;9.60;93.70
5808;DHT22;2930;42.678;23.312;2023-02-28T09:33:07;9.60;94.10
5808;DHT22;2930;42.678;23.312;2023-02-28T09:35:33;9.60;93.90
5808;DHT22;2930;42.678;23.312;2023-02-28T09:37:59;9.60;93.80
5808;DHT22;2930;42.678;23.312;2023-02-28T09:40:25;9.60;93.90
5808;DHT22;2930;42.678;23.312;2023-02-28T09:42:53;9.70;93.50
5808;DHT22;2930;42.678;23.312;2023-02-28T09:47:58;9.70;93.40
5808;DHT22;2930;42.678;23.312;2023-02-28T09:50:35;9.80;93.40
5808;DHT22;2930;42.678;23.312;2023-02-28T09:53:19;9.80;93.70
5808;DHT22;2930;42.678;23.312;2023-02-28T09:55:51;9.80;93.90
5808;DHT22;2930;42.678;23.312;2023-02-28T09:58:33;9.90;93.50
5808;DHT22;2930;42.678;23.312;2023-02-28T10:01:12;10.00;93.30
5808;DHT22;2930;42.678;23.312;2023-02-28T10:06:28;10.10;93.70
5808;DHT22;2930;42.678;23.312;2023-02-28T10:11:36;10.20;93.30
5808;DHT22;2930;42.678;23.312;2023-02-28T10:14:18;10.40;93.30
5808;DHT22;2930;42.678;23.312;2023-02-28T10:17:05;10.50;93.40
5808;DHT22;2930;42.678;23.312;2023-02-28T10:20:12;10.60;93.10
5808;DHT22;2930;42.678;23.312;2023-02-28T10:25:45;11.00;92.90
5808;DHT22;2930;42.678;23.312;2023-02-28T10:28:17;11.20;91.90
5808;DHT22;2930;42.678;23.312;2023-02-28T10:30:49;11.40;90.80
5808;DHT22;2930;42.678;23.312;2023-02-28T10:33:34;11.50;90.50
5808;DHT22;2930;42.678;23.312;2023-02-28T10:36:01;11.60;89.90
5808;DHT22;2930;42.678;23.312;2023-02-28T10:38:33;11.80;89.90
5808;DHT22;2930;42.678;23.312;2023-02-28T10:43:35;12.10;88.70
5808;DHT22;2930;42.678;23.312;2023-02-28T10:50:59;13.00;86.90
5808;DHT22;2930;42.678;23.312;2023-02-28T10:53:31;13.50;86.70
5808;DHT22;2930;42.678;23.312;2023-02-28T10:58:49;15.10;81.80
5808;DHT22;2930;42.678;23.312;2023-02-28T11:03:43;16.20;77.40
5808;DHT22;2930;42.678;23.312;2023-02-28T11:06:22;16.70;78.10
5808;DHT22;2930;42.678;23.312;2023-02-28T11:09:44;17.30;72.40
5808;DHT22;2930;42.678;23.312;2023-02-28T11:12:02;17.50;73.00
5808;DHT22;2930;42.678;23.312;2023-02-28T11:14:32;18.20;73.80
5808;DHT22;2930;42.678;23.312;2023-02-28T11:17:11;18.80;71.70
5808;DHT22;2930;42.678;23.312;2023-02-28T11:19:43;19.20;70.60
5808;DHT22;2930;42.678;23.312;2023-02-28T11:22:10;19.60;69.30
5808;DHT22;2930;42.678;23.312;2023-02-28T11:24:45;19.80;68.50
5808;DHT22;2930;42.678;23.312;2023-02-28T11:29:57;19.60;67.80
5808;DHT22;2930;42.678;23.312;2023-02-28T11:32:24;19.40;68.30
5808;DHT22;2930;42.678;23.312;2023-02-28T11:35:16;19.40;68.60
5808;DHT22;2930;42.678;23.312;2023-02-28T11:37:43;18.80;67.80
5808;DHT22;2930;42.678;23.312;2023-02-28T11:40:20;17.90;68.60
5808;DHT22;2930;42.678;23.312;2023-02-28T11:42:59;17.80;70.70
5808;DHT22;2930;42.678;23.312;2023-02-28T11:48:31;17.80;70.40
5808;DHT22;2930;42.678;23.312;2023-02-28T11:51:24;18.10;70.30
5808;DHT22;2930;42.678;23.312;2023-02-28T11:56:49;19.20;68.20
5808;DHT22;2930;42.678;23.312;2023-02-28T11:59:40;19.60;67.90
5808;DHT22;2930;42.678;23.312;2023-02-28T12:02:23;19.90;66.30
5808;DHT22;2930;42.678;23.312;2023-02-28T12:10:30;20.10;66.10
5808;DHT22;2930;42.678;23.312;2023-02-28T12:13:34;20.10;66.30
5808;DHT22;2930;42.678;23.312;2023-02-28T12:27:07;19.30;66.50
5808;DHT22;2930;42.678;23.312;2023-02-28T12:32:21;19.00;66.30
5808;DHT22;2930;42.678;23.312;2023-02-28T12:34:56;18.70;67.00
5808;DHT22;2930;42.678;23.312;2023-02-28T12:40:15;18.20;67.30
5808;DHT22;2930;42.678;23.312;2023-02-28T12:43:03;17.40;69.10
5808;DHT22;2930;42.678;23.312;2023-02-28T12:45:46;17.20;69.90
5808;DHT22;2930;42.678;23.312;2023-02-28T12:50:51;16.80;70.30
5808;DHT22;2930;42.678;23.312;2023-02-28T12:58:44;15.50;73.10
5808;DHT22;2930;42.678;23.312;2023-02-28T13:09:23;14.90;74.50
5808;DHT22;2930;42.678;23.312;2023-02-28T13:11:53;15.00;74.90
5808;DHT22;2930;42.678;23.312;2023-02-28T13:22:05;15.10;73.80
5808;DHT22;2930;42.678;23.312;2023-02-28T13:24:43;14.80;74.80
5808;DHT22;2930;42.678;23.312;2023-02-28T13:29:35;14.70;75.40
5808;DHT22;2930;42.678;23.312;2023-02-28T13:39:57;13.80;77.30
5808;DHT22;2930;42.678;23.312;2023-02-28T13:47:44;13.10;79.50
5808;DHT22;2930;42.678;23.312;2023-02-28T13:55:53;13.30;79.40
5808;DHT22;2930;42.678;23.312;2023-02-28T14:11:37;13.10;79.20
5808;DHT22;2930;42.678;23.312;2023-02-28T14:14:05;13.10;79.50
5808;DHT22;2930;42.678;23.312;2023-02-28T14:16:45;13.10;79.30
5808;DHT22;2930;42.678;23.312;2023-02-28T14:19:21;13.00;79.60
5808;DHT22;2930;42.678;23.312;2023-02-28T14:27:35;12.80;80.30
5808;DHT22;2930;42.678;23.312;2023-02-28T14:38:49;12.60;81.10
5808;DHT22;2930;42.678;23.312;2023-02-28T14:41:33;12.40;81.70
5808;DHT22;2930;42.678;23.312;2023-02-28T14:46:40;12.20;82.70
5808;DHT22;2930;42.678;23.312;2023-02-28T14:49:35;12.20;82.30
5808;DHT22;2930;42.678;23.312;2023-02-28T14:54:29;11.90;83.90
5808;DHT22;2930;42.678;23.312;2023-02-28T14:56:55;11.60;84.50
5808;DHT22;2930;42.678;23.312;2023-02-28T14:59:27;11.50;85.00
5808;DHT22;2930;42.678;23.312;2023-02-28T15:02:17;11.40;85.00
5808;DHT22;2930;42.678;23.312;2023-02-28T15:04:43;11.50;85.00
5808;DHT22;2930;42.678;23.312;2023-02-28T15:07:17;11.40;85.20
5808;DHT22;2930;42.678;23.312;2023-02-28T15:09:42;11.40;85.80
5808;DHT22;2930;42.678;23.312;2023-02-28T15:12:13;11.40;85.40
5808;DHT22;2930;42.678;23.312;2023-02-28T15:14:42;11.30;85.50
5808;DHT22;2930;42.678;23.312;2023-02-28T15:17:17;11.30;85.70
5808;DHT22;2930;42.678;23.312;2023-02-28T15:19:49;11.40;85.50
5808;DHT22;2930;42.678;23.312;2023-02-28T15:22:20;11.40;85.10
5808;DHT22;2930;42.678;23.312;2023-02-28T15:24:51;11.30;86.00
5808;DHT22;2930;42.678;23.312;2023-02-28T15:27:23;11.30;85.70
5808;DHT22;2930;42.678;23.312;2023-02-28T15:29:53;11.30;86.10
5808;DHT22;2930;42.678;23.312;2023-02-28T15:35:25;11.30;85.40
5808;DHT22;2930;42.678;23.312;2023-02-28T15:37:52;11.30;85.50
5808;DHT22;2930;42.678;23.312;2023-02-28T15:40:32;11.20;85.70
5808;DHT22;2930;42.678;23.312;2023-02-28T15:43:16;11.20;85.50
5808;DHT22;2930;42.678;23.312;2023-02-28T15:45:49;11.20;85.60
5808;DHT22;2930;42.678;23.312;2023-02-28T15:48:43;11.10;86.10
5808;DHT22;2930;42.678;23.312;2023-02-28T15:51:14;11.10;86.00
5808;DHT22;2930;42.678;23.312;2023-02-28T15:56:25;11.10;85.90
5808;DHT22;2930;42.678;23.312;2023-02-28T15:59:15;11.00;86.70
5808;DHT22;2930;42.678;23.312;2023-02-28T16:01:42;11.00;86.10
5808;DHT22;2930;42.678;23.312;2023-02-28T16:04:18;10.90;86.80
5808;DHT22;2930;42.678;23.312;2023-02-28T16:07:05;10.80;87.10
5808;DHT22;2930;42.678;23.312;2023-02-28T16:09:31;10.80;87.00
5808;DHT22;2930;42.678;23.312;2023-02-28T16:12:00;10.80;87.30
5808;DHT22;2930;42.678;23.312;2023-02-28T16:14:31;10.80;87.20
5808;DHT22;2930;42.678;23.312;2023-02-28T16:17:04;10.70;87.50
5808;DHT22;2930;42.678;23.312;2023-02-28T16:19:30;10.70;87.50
5808;DHT22;2930;42.678;23.312;2023-02-28T16:21:56;10.60;87.90
5808;DHT22;2930;42.678;23.312;2023-02-28T16:24:22;10.60;87.90
5808;DHT22;2930;42.678;23.312;2023-02-28T16:26:49;10.50;88.10
5808;DHT22;2930;42.678;23.312;2023-02-28T16:29:25;10.40;88.50
5808;DHT22;2930;42.678;23.312;2023-02-28T16:31:52;10.40;88.60
5808;DHT22;2930;42.678;23.312;2023-02-28T16:34:19;10.40;88.50
5808;DHT22;2930;42.678;23.312;2023-02-28T16:36:47;10.30;88.50
5808;DHT22;2930;42.678;23.312;2023-02-28T16:39:13;10.20;88.90
5808;DHT22;2930;42.678;23.312;2023-02-28T16:41:42;10.10;89.50
5808;DHT22;2930;42.678;23.312;2023-02-28T16:44:30;10.00;89.30
5808;DHT22;2930;42.678;23.312;2023-02-28T16:46:59;10.00;89.10
5808;DHT22;2930;42.678;23.312;2023-02-28T16:49:25;9.90;89.60
5808;DHT22;2930;42.678;23.312;2023-02-28T16:51:51;9.80;89.50
5808;DHT22;2930;42.678;23.312;2023-02-28T16:54:16;9.70;89.50
5808;DHT22;2930;42.678;23.312;2023-02-28T16:56:45;9.60;90.10
5808;DHT22;2930;42.678;23.312;2023-02-28T16:59:11;9.50;90.20
5808;DHT22;2930;42.678;23.312;2023-02-28T17:01:38;9.40;90.50
5808;DHT22;2930;42.678;23.312;2023-02-28T17:04:05;9.40;90.50
5808;DHT22;2930;42.678;23.312;2023-02-28T17:06:31;9.40;90.90
5808;DHT22;2930;42.678;23.312;2023-02-28T17:08:57;9.30;91.00
5808;DHT22;2930;42.678;23.312;2023-02-28T17:11:25;9.30;90.90
5808;DHT22;2930;42.678;23.312;2023-02-28T17:13:51;9.30;90.90
5808;DHT22;2930;42.678;23.312;2023-02-28T17:16:28;9.20;90.80
5808;DHT22;2930;42.678;23.312;2023-02-28T17:19:04;9.10;91.00
5808;DHT22;2930;42.678;23.312;2023-02-28T17:21:32;9.10;91.10
5808;DHT22;2930;42.678;23.312;2023-02-28T17:23:58;9.10;89.60
5808;DHT22;2930;42.678;23.312;2023-02-28T17:26:25;9.10;90.90
5808;DHT22;2930;42.678;23.312;2023-02-28T17:28:52;9.00;90.70
5808;DHT22;2930;42.678;23.312;2023-02-28T17:31:20;9.00;91.30
5808;DHT22;2930;42.678;23.312;2023-02-28T17:33:45;9.00;91.40
5808;DHT22;2930;42.678;23.312;2023-02-28T17:36:22;8.90;91.00
5808;DHT22;2930;42.678;23.312;2023-02-28T17:38:50;8.90;91.00
5808;DHT22;2930;42.678;23.312;2023-02-28T17:41:15;8.90;91.20
5808;DHT22;2930;42.678;23.312;2023-02-28T17:43:41;8.90;91.40
5808;DHT22;2930;42.678;23.312;2023-02-28T17:46:18;8.80;92.00
5808;DHT22;2930;42.678;23.312;2023-02-28T17:48:46;8.80;91.80
5808;DHT22;2930;42.678;23.312;2023-02-28T17:51:13;8.70;91.90
5808;DHT22;2930;42.678;23.312;2023-02-28T17:53:39;8.70;92.40
5808;DHT22;2930;42.678;23.312;2023-02-28T17:56:10;8.70;92.40
5808;DHT22;2930;42.678;23.312;2023-02-28T17:58:36;8.70;92.20
5808;DHT22;2930;42.678;23.312;2023-02-28T18:01:02;8.70;92.50
5808;DHT22;2930;42.678;23.312;2023-02-28T18:03:28;8.60;92.70
5808;DHT22;2930;42.678;23.312;2023-02-28T18:05:55;8.60;92.60
5808;DHT22;2930;42.678;23.312;2023-02-28T18:08:22;8.60;92.80
5808;DHT22;2930;42.678;23.312;2023-02-28T18:10:47;8.50;93.10
5808;DHT22;2930;42.678;23.312;2023-02-28T18:13:13;8.50;93.20
5808;DHT22;2930;42.678;23.312;2023-02-28T18:15:39;8.50;93.20
5808;DHT22;2930;42.678;23.312;2023-02-28T18:18:04;8.40;93.70
5808;DHT22;2930;42.678;23.312;2023-02-28T18:20:32;8.20;94.40
5808;DHT22;2930;42.678;23.312;2023-02-28T18:22:58;8.20;94.50
5808;DHT22;2930;42.678;23.312;2023-02-28T18:25:24;8.10;94.50
5808;DHT22;2930;42.678;23.312;2023-02-28T18:27:50;8.00;94.80
5808;DHT22;2930;42.678;23.312;2023-02-28T18:30:29;8.00;94.70
5808;DHT22;2930;42.678;23.312;2023-02-28T18:32:59;8.00;94.60
5808;DHT22;2930;42.678;23.312;2023-02-28T18:35:26;8.10;94.60
5808;DHT22;2930;42.678;23.312;2023-02-28T18:38:12;8.00;94.70
5808;DHT22;2930;42.678;23.312;2023-02-28T18:40:38;8.10;94.20
5808;DHT22;2930;42.678;23.312;2023-02-28T18:43:04;8.10;94.40
5808;DHT22;2930;42.678;23.312;2023-02-28T18:45:30;8.10;94.20
5808;DHT22;2930;42.678;23.312;2023-02-28T18:47:56;8.20;94.10
5808;DHT22;2930;42.678;23.312;2023-02-28T18:50:22;8.20;93.70
5808;DHT22;2930;42.678;23.312;2023-02-28T18:52:48;8.20;94.10
5808;DHT22;2930;42.678;23.312;2023-02-28T18:55:13;8.20;94.10
5808;DHT22;2930;42.678;23.312;2023-02-28T18:57:46;8.20;93.90
5808;DHT22;2930;42.678;23.312;2023-02-28T19:00:13;8.30;93.60
5808;DHT22;2930;42.678;23.312;2023-02-28T19:02:39;8.30;93.60
5808;DHT22;2930;42.678;23.312;2023-02-28T19:05:05;8.30;93.50
5808;DHT22;2930;42.678;23.312;2023-02-28T19:07:31;8.30;93.70
5808;DHT22;2930;42.678;23.312;2023-02-28T19:09:59;8.30;93.60
5808;DHT22;2930;42.678;23.312;2023-02-28T19:12:24;8.30;93.50